Melbourne Beach, Florida
Current Conditions -  °F | °C
As of 5:06 AM on Wednesday 26 Nov 2014 (Local Time) from KMLB Reporting Station
Light Rain Light Rain  
Wind Chill: 72°   Ceiling: 800
Heat Index: 72°   Visibility: 10mi
Dew Point: 70°   Wind: 12mph
Humidity: 93%   Direction: 190°S
Pressure: 29.9"   Gusts: NA
Location:  28.07°N, 80.56°W
Report Text: KMLB 261006Z AUTO 19010KT 10SM -RA BKN008 BKN042 OVC110 22/21 A2990 RMK AO2 LTG DSNT E AND SW P0000 T02220211
Loading
Personal Weather Stations






























Interactive Weather Map New forecast layout! Learn more

10-Day Weather Forecast

Advertisements
Track Severe Weather on mobile